sensor_id;sensor_type;location;lat;lon;timestamp;P1;durP1;ratioP1;P2;durP2;ratioP2
20423;SDS011;10371;49.042;8.002;2023-12-07T00:00:36;10.63;;;9.60;;
20423;SDS011;10371;49.042;8.002;2023-12-07T00:01:36;11.30;;;9.63;;
20423;SDS011;10371;49.042;8.002;2023-12-07T00:02:37;10.67;;;9.27;;
20423;SDS011;10371;49.042;8.002;2023-12-07T00:03:37;10.90;;;9.77;;
20423;SDS011;10371;49.042;8.002;2023-12-07T00:04:37;10.37;;;9.23;;
20423;SDS011;10371;49.042;8.002;2023-12-07T00:05:38;10.80;;;9.80;;
20423;SDS011;10371;49.042;8.002;2023-12-07T00:06:38;10.87;;;9.07;;
20423;SDS011;10371;49.042;8.002;2023-12-07T00:07:38;10.47;;;9.30;;
20423;SDS011;10371;49.042;8.002;2023-12-07T00:08:38;10.97;;;9.80;;
20423;SDS011;10371;49.042;8.002;2023-12-07T00:09:39;10.67;;;9.60;;
20423;SDS011;10371;49.042;8.002;2023-12-07T00:10:39;11.57;;;9.93;;
20423;SDS011;10371;49.042;8.002;2023-12-07T00:11:39;10.90;;;9.03;;
20423;SDS011;10371;49.042;8.002;2023-12-07T00:12:40;9.73;;;8.73;;
20423;SDS011;10371;49.042;8.002;2023-12-07T00:13:40;10.80;;;9.07;;
20423;SDS011;10371;49.042;8.002;2023-12-07T00:14:41;10.43;;;9.40;;
20423;SDS011;10371;49.042;8.002;2023-12-07T00:15:41;10.33;;;9.20;;
20423;SDS011;10371;49.042;8.002;2023-12-07T00:16:42;10.07;;;9.07;;
20423;SDS011;10371;49.042;8.002;2023-12-07T00:17:42;10.57;;;9.23;;
20423;SDS011;10371;49.042;8.002;2023-12-07T00:18:42;10.53;;;9.53;;
20423;SDS011;10371;49.042;8.002;2023-12-07T00:19:43;10.17;;;9.03;;
20423;SDS011;10371;49.042;8.002;2023-12-07T00:20:43;9.80;;;8.43;;
20423;SDS011;10371;49.042;8.002;2023-12-07T00:21:44;10.60;;;9.53;;
20423;SDS011;10371;49.042;8.002;2023-12-07T00:22:44;9.60;;;8.70;;
20423;SDS011;10371;49.042;8.002;2023-12-07T00:23:45;10.70;;;9.03;;
20423;SDS011;10371;49.042;8.002;2023-12-07T00:24:45;10.87;;;9.77;;
20423;SDS011;10371;49.042;8.002;2023-12-07T00:25:46;10.83;;;9.63;;
20423;SDS011;10371;49.042;8.002;2023-12-07T00:26:46;10.33;;;9.33;;
20423;SDS011;10371;49.042;8.002;2023-12-07T00:27:46;10.67;;;9.67;;
20423;SDS011;10371;49.042;8.002;2023-12-07T00:28:46;10.60;;;9.50;;
20423;SDS011;10371;49.042;8.002;2023-12-07T00:29:47;9.63;;;8.73;;
20423;SDS011;10371;49.042;8.002;2023-12-07T00:30:47;11.37;;;10.00;;
20423;SDS011;10371;49.042;8.002;2023-12-07T00:31:47;10.30;;;9.30;;
20423;SDS011;10371;49.042;8.002;2023-12-07T00:32:47;10.30;;;9.30;;
20423;SDS011;10371;49.042;8.002;2023-12-07T00:33:48;10.33;;;9.37;;
20423;SDS011;10371;49.042;8.002;2023-12-07T00:34:48;12.03;;;9.73;;
20423;SDS011;10371;49.042;8.002;2023-12-07T00:35:49;10.00;;;8.90;;
20423;SDS011;10371;49.042;8.002;2023-12-07T00:36:49;10.73;;;9.63;;
20423;SDS011;10371;49.042;8.002;2023-12-07T00:37:50;10.43;;;9.40;;
20423;SDS011;10371;49.042;8.002;2023-12-07T00:38:50;10.27;;;9.17;;
20423;SDS011;10371;49.042;8.002;2023-12-07T00:39:50;11.33;;;10.20;;
20423;SDS011;10371;49.042;8.002;2023-12-07T00:40:50;11.37;;;10.27;;
20423;SDS011;10371;49.042;8.002;2023-12-07T00:41:51;10.83;;;9.77;;
20423;SDS011;10371;49.042;8.002;2023-12-07T00:42:51;10.77;;;9.67;;
20423;SDS011;10371;49.042;8.002;2023-12-07T00:43:51;11.57;;;10.47;;
20423;SDS011;10371;49.042;8.002;2023-12-07T00:44:52;14.50;;;10.63;;
20423;SDS011;10371;49.042;8.002;2023-12-07T00:45:52;12.07;;;10.90;;
20423;SDS011;10371;49.042;8.002;2023-12-07T00:46:52;11.67;;;10.40;;
20423;SDS011;10371;49.042;8.002;2023-12-07T00:47:52;12.10;;;10.80;;
20423;SDS011;10371;49.042;8.002;2023-12-07T00:48:53;13.67;;;12.27;;
20423;SDS011;10371;49.042;8.002;2023-12-07T00:49:53;13.80;;;12.50;;
20423;SDS011;10371;49.042;8.002;2023-12-07T00:50:53;14.33;;;12.97;;
20423;SDS011;10371;49.042;8.002;2023-12-07T00:51:53;12.83;;;11.67;;
20423;SDS011;10371;49.042;8.002;2023-12-07T00:52:54;14.20;;;12.80;;
20423;SDS011;10371;49.042;8.002;2023-12-07T00:53:54;13.77;;;12.47;;
20423;SDS011;10371;49.042;8.002;2023-12-07T00:54:55;13.23;;;11.93;;
20423;SDS011;10371;49.042;8.002;2023-12-07T00:55:56;12.83;;;11.53;;
20423;SDS011;10371;49.042;8.002;2023-12-07T00:56:56;13.63;;;12.43;;
20423;SDS011;10371;49.042;8.002;2023-12-07T00:57:57;14.43;;;12.60;;
20423;SDS011;10371;49.042;8.002;2023-12-07T00:59:00;13.77;;;12.47;;
20423;SDS011;10371;49.042;8.002;2023-12-07T01:00:00;14.73;;;13.33;;
20423;SDS011;10371;49.042;8.002;2023-12-07T01:01:00;14.67;;;13.27;;
20423;SDS011;10371;49.042;8.002;2023-12-07T01:02:01;14.53;;;13.13;;
20423;SDS011;10371;49.042;8.002;2023-12-07T01:03:01;14.43;;;12.93;;
20423;SDS011;10371;49.042;8.002;2023-12-07T01:04:01;14.40;;;13.10;;
20423;SDS011;10371;49.042;8.002;2023-12-07T01:05:02;14.30;;;13.00;;
20423;SDS011;10371;49.042;8.002;2023-12-07T01:06:02;15.00;;;13.50;;
20423;SDS011;10371;49.042;8.002;2023-12-07T01:07:03;13.93;;;12.53;;
20423;SDS011;10371;49.042;8.002;2023-12-07T01:08:03;14.17;;;12.87;;
20423;SDS011;10371;49.042;8.002;2023-12-07T01:09:03;14.67;;;13.20;;
20423;SDS011;10371;49.042;8.002;2023-12-07T01:10:04;13.73;;;12.33;;
20423;SDS011;10371;49.042;8.002;2023-12-07T01:11:05;14.83;;;13.43;;
20423;SDS011;10371;49.042;8.002;2023-12-07T01:12:06;13.77;;;12.40;;
20423;SDS011;10371;49.042;8.002;2023-12-07T01:13:06;14.70;;;13.30;;
20423;SDS011;10371;49.042;8.002;2023-12-07T01:14:06;14.63;;;13.20;;
20423;SDS011;10371;49.042;8.002;2023-12-07T01:15:07;15.20;;;13.70;;
20423;SDS011;10371;49.042;8.002;2023-12-07T01:16:07;14.23;;;12.93;;
20423;SDS011;10371;49.042;8.002;2023-12-07T01:17:07;14.20;;;12.90;;
20423;SDS011;10371;49.042;8.002;2023-12-07T01:18:08;13.87;;;12.57;;
20423;SDS011;10371;49.042;8.002;2023-12-07T01:19:08;14.63;;;12.73;;
20423;SDS011;10371;49.042;8.002;2023-12-07T01:20:09;15.67;;;14.07;;
20423;SDS011;10371;49.042;8.002;2023-12-07T01:21:12;14.80;;;13.23;;
20423;SDS011;10371;49.042;8.002;2023-12-07T01:22:12;14.63;;;13.13;;
20423;SDS011;10371;49.042;8.002;2023-12-07T01:23:13;14.70;;;13.40;;
20423;SDS011;10371;49.042;8.002;2023-12-07T01:24:13;13.73;;;12.43;;
20423;SDS011;10371;49.042;8.002;2023-12-07T01:25:14;14.33;;;12.93;;
20423;SDS011;10371;49.042;8.002;2023-12-07T01:26:19;13.67;;;12.37;;
20423;SDS011;10371;49.042;8.002;2023-12-07T01:27:20;13.80;;;12.50;;
20423;SDS011;10371;49.042;8.002;2023-12-07T01:28:21;13.60;;;12.30;;
20423;SDS011;10371;49.042;8.002;2023-12-07T01:29:21;13.90;;;12.60;;
20423;SDS011;10371;49.042;8.002;2023-12-07T01:30:21;14.43;;;13.07;;
20423;SDS011;10371;49.042;8.002;2023-12-07T01:31:22;14.10;;;12.70;;
20423;SDS011;10371;49.042;8.002;2023-12-07T01:32:22;14.10;;;12.80;;
20423;SDS011;10371;49.042;8.002;2023-12-07T01:33:22;13.60;;;12.30;;
20423;SDS011;10371;49.042;8.002;2023-12-07T01:34:23;14.93;;;13.43;;
20423;SDS011;10371;49.042;8.002;2023-12-07T01:35:23;14.43;;;13.03;;
20423;SDS011;10371;49.042;8.002;2023-12-07T01:36:23;15.67;;;14.07;;
20423;SDS011;10371;49.042;8.002;2023-12-07T01:37:24;14.43;;;12.93;;
20423;SDS011;10371;49.042;8.002;2023-12-07T01:38:24;14.50;;;13.13;;
20423;SDS011;10371;49.042;8.002;2023-12-07T01:39:24;15.47;;;14.00;;
20423;SDS011;10371;49.042;8.002;2023-12-07T01:40:24;15.47;;;13.90;;
20423;SDS011;10371;49.042;8.002;2023-12-07T01:41:25;16.07;;;14.13;;
20423;SDS011;10371;49.042;8.002;2023-12-07T01:42:25;17.17;;;14.20;;
20423;SDS011;10371;49.042;8.002;2023-12-07T01:43:25;15.23;;;13.73;;
20423;SDS011;10371;49.042;8.002;2023-12-07T01:44:25;15.53;;;13.97;;
20423;SDS011;10371;49.042;8.002;2023-12-07T01:45:27;15.33;;;13.73;;
20423;SDS011;10371;49.042;8.002;2023-12-07T01:46:28;14.33;;;13.03;;
20423;SDS011;10371;49.042;8.002;2023-12-07T01:47:28;14.13;;;12.87;;
20423;SDS011;10371;49.042;8.002;2023-12-07T01:48:29;13.90;;;12.70;;
20423;SDS011;10371;49.042;8.002;2023-12-07T01:49:30;15.00;;;13.60;;
20423;SDS011;10371;49.042;8.002;2023-12-07T01:50:30;13.30;;;12.00;;
20423;SDS011;10371;49.042;8.002;2023-12-07T01:51:31;14.83;;;13.33;;
20423;SDS011;10371;49.042;8.002;2023-12-07T01:52:32;15.27;;;13.83;;
20423;SDS011;10371;49.042;8.002;2023-12-07T01:53:33;15.63;;;14.07;;
20423;SDS011;10371;49.042;8.002;2023-12-07T01:54:34;15.53;;;14.03;;
20423;SDS011;10371;49.042;8.002;2023-12-07T01:55:34;16.03;;;14.33;;
20423;SDS011;10371;49.042;8.002;2023-12-07T01:56:36;16.17;;;14.63;;
20423;SDS011;10371;49.042;8.002;2023-12-07T01:57:36;15.40;;;14.00;;
20423;SDS011;10371;49.042;8.002;2023-12-07T01:58:37;16.37;;;14.67;;
20423;SDS011;10371;49.042;8.002;2023-12-07T01:59:37;16.87;;;15.27;;
20423;SDS011;10371;49.042;8.002;2023-12-07T02:00:37;16.37;;;14.60;;
20423;SDS011;10371;49.042;8.002;2023-12-07T02:01:38;17.40;;;15.60;;
20423;SDS011;10371;49.042;8.002;2023-12-07T02:02:38;16.57;;;14.87;;
20423;SDS011;10371;49.042;8.002;2023-12-07T02:03:39;16.70;;;15.00;;
20423;SDS011;10371;49.042;8.002;2023-12-07T02:04:40;17.73;;;15.20;;
20423;SDS011;10371;49.042;8.002;2023-12-07T02:05:43;17.53;;;15.80;;
20423;SDS011;10371;49.042;8.002;2023-12-07T02:06:47;17.10;;;15.50;;
20423;SDS011;10371;49.042;8.002;2023-12-07T02:07:48;15.70;;;14.20;;
20423;SDS011;10371;49.042;8.002;2023-12-07T02:08:49;15.53;;;14.13;;
20423;SDS011;10371;49.042;8.002;2023-12-07T02:09:49;15.07;;;13.63;;
20423;SDS011;10371;49.042;8.002;2023-12-07T02:10:50;15.30;;;13.77;;
20423;SDS011;10371;49.042;8.002;2023-12-07T02:11:52;15.37;;;13.87;;
20423;SDS011;10371;49.042;8.002;2023-12-07T02:12:52;15.33;;;13.77;;
20423;SDS011;10371;49.042;8.002;2023-12-07T02:13:54;15.77;;;14.20;;
20423;SDS011;10371;49.042;8.002;2023-12-07T02:14:57;16.00;;;14.50;;
20423;SDS011;10371;49.042;8.002;2023-12-07T02:15:58;15.73;;;13.87;;
20423;SDS011;10371;49.042;8.002;2023-12-07T02:17:17;15.77;;;14.30;;
20423;SDS011;10371;49.042;8.002;2023-12-07T02:19:46;15.73;;;14.17;;
20423;SDS011;10371;49.042;8.002;2023-12-07T02:21:04;15.30;;;13.80;;
20423;SDS011;10371;49.042;8.002;2023-12-07T02:22:08;14.67;;;13.23;;
20423;SDS011;10371;49.042;8.002;2023-12-07T02:23:12;15.33;;;13.87;;
20423;SDS011;10371;49.042;8.002;2023-12-07T02:24:16;15.37;;;13.87;;
20423;SDS011;10371;49.042;8.002;2023-12-07T02:25:26;16.93;;;15.30;;
20423;SDS011;10371;49.042;8.002;2023-12-07T02:26:44;17.13;;;15.43;;
20423;SDS011;10371;49.042;8.002;2023-12-07T02:27:45;17.73;;;16.00;;
20423;SDS011;10371;49.042;8.002;2023-12-07T02:28:48;18.53;;;16.73;;
20423;SDS011;10371;49.042;8.002;2023-12-07T02:29:48;19.17;;;17.17;;
20423;SDS011;10371;49.042;8.002;2023-12-07T02:30:49;19.53;;;17.43;;
20423;SDS011;10371;49.042;8.002;2023-12-07T02:31:49;18.47;;;16.67;;
20423;SDS011;10371;49.042;8.002;2023-12-07T02:32:49;19.00;;;17.17;;
20423;SDS011;10371;49.042;8.002;2023-12-07T02:33:50;17.73;;;16.10;;
20423;SDS011;10371;49.042;8.002;2023-12-07T02:34:50;17.23;;;15.57;;
20423;SDS011;10371;49.042;8.002;2023-12-07T02:35:50;18.47;;;16.70;;
20423;SDS011;10371;49.042;8.002;2023-12-07T02:36:51;18.87;;;16.97;;
20423;SDS011;10371;49.042;8.002;2023-12-07T02:37:55;20.03;;;17.93;;
20423;SDS011;10371;49.042;8.002;2023-12-07T02:38:56;17.67;;;15.80;;
20423;SDS011;10371;49.042;8.002;2023-12-07T02:39:58;17.47;;;15.77;;
20423;SDS011;10371;49.042;8.002;2023-12-07T02:40:59;17.00;;;15.37;;
20423;SDS011;10371;49.042;8.002;2023-12-07T02:42:00;18.70;;;16.20;;
20423;SDS011;10371;49.042;8.002;2023-12-07T02:43:01;18.70;;;16.80;;
20423;SDS011;10371;49.042;8.002;2023-12-07T02:44:03;18.20;;;16.60;;
20423;SDS011;10371;49.042;8.002;2023-12-07T02:45:04;18.60;;;16.80;;
20423;SDS011;10371;49.042;8.002;2023-12-07T02:46:05;18.57;;;16.77;;
20423;SDS011;10371;49.042;8.002;2023-12-07T02:47:05;18.17;;;16.40;;
20423;SDS011;10371;49.042;8.002;2023-12-07T02:48:05;18.60;;;16.70;;
20423;SDS011;10371;49.042;8.002;2023-12-07T02:49:07;18.07;;;16.23;;
20423;SDS011;10371;49.042;8.002;2023-12-07T02:50:07;17.73;;;16.03;;
20423;SDS011;10371;49.042;8.002;2023-12-07T02:51:08;17.13;;;15.53;;
20423;SDS011;10371;49.042;8.002;2023-12-07T02:52:08;18.43;;;16.63;;
20423;SDS011;10371;49.042;8.002;2023-12-07T02:53:08;16.80;;;15.07;;
20423;SDS011;10371;49.042;8.002;2023-12-07T02:54:09;17.47;;;15.87;;
20423;SDS011;10371;49.042;8.002;2023-12-07T02:55:09;21.37;;;19.10;;
20423;SDS011;10371;49.042;8.002;2023-12-07T02:56:10;20.57;;;18.47;;
20423;SDS011;10371;49.042;8.002;2023-12-07T02:57:10;21.17;;;18.97;;
20423;SDS011;10371;49.042;8.002;2023-12-07T02:58:10;19.10;;;17.20;;
20423;SDS011;10371;49.042;8.002;2023-12-07T02:59:11;18.27;;;16.67;;
20423;SDS011;10371;49.042;8.002;2023-12-07T03:00:11;18.43;;;16.60;;
20423;SDS011;10371;49.042;8.002;2023-12-07T03:01:14;17.63;;;15.93;;
20423;SDS011;10371;49.042;8.002;2023-12-07T03:02:14;17.87;;;16.10;;
20423;SDS011;10371;49.042;8.002;2023-12-07T03:03:14;17.17;;;15.57;;
20423;SDS011;10371;49.042;8.002;2023-12-07T03:04:14;16.73;;;15.07;;
20423;SDS011;10371;49.042;8.002;2023-12-07T03:05:15;16.67;;;15.03;;
20423;SDS011;10371;49.042;8.002;2023-12-07T03:06:15;16.23;;;14.73;;
20423;SDS011;10371;49.042;8.002;2023-12-07T03:07:17;18.43;;;16.63;;
20423;SDS011;10371;49.042;8.002;2023-12-07T03:08:17;18.13;;;16.23;;
20423;SDS011;10371;49.042;8.002;2023-12-07T03:09:17;18.30;;;16.40;;
20423;SDS011;10371;49.042;8.002;2023-12-07T03:10:17;18.37;;;16.47;;
20423;SDS011;10371;49.042;8.002;2023-12-07T03:11:18;17.13;;;15.33;;
20423;SDS011;10371;49.042;8.002;2023-12-07T03:12:18;17.70;;;15.90;;
20423;SDS011;10371;49.042;8.002;2023-12-07T03:13:18;16.80;;;15.20;;
20423;SDS011;10371;49.042;8.002;2023-12-07T03:14:18;17.20;;;15.53;;
20423;SDS011;10371;49.042;8.002;2023-12-07T03:15:19;18.13;;;16.23;;
20423;SDS011;10371;49.042;8.002;2023-12-07T03:16:19;16.87;;;15.20;;
20423;SDS011;10371;49.042;8.002;2023-12-07T03:17:20;16.93;;;15.33;;
20423;SDS011;10371;49.042;8.002;2023-12-07T03:18:20;16.87;;;15.17;;
20423;SDS011;10371;49.042;8.002;2023-12-07T03:19:21;15.87;;;14.27;;
20423;SDS011;10371;49.042;8.002;2023-12-07T03:20:21;17.13;;;15.50;;
20423;SDS011;10371;49.042;8.002;2023-12-07T03:21:21;16.33;;;14.63;;
20423;SDS011;10371;49.042;8.002;2023-12-07T03:22:21;15.60;;;14.10;;
20423;SDS011;10371;49.042;8.002;2023-12-07T03:23:22;16.23;;;14.67;;
20423;SDS011;10371;49.042;8.002;2023-12-07T03:24:22;16.40;;;14.73;;
20423;SDS011;10371;49.042;8.002;2023-12-07T03:25:22;16.40;;;14.77;;
20423;SDS011;10371;49.042;8.002;2023-12-07T03:26:22;16.80;;;15.20;;
20423;SDS011;10371;49.042;8.002;2023-12-07T03:27:23;16.07;;;14.53;;
20423;SDS011;10371;49.042;8.002;2023-12-07T03:28:23;15.80;;;14.33;;
20423;SDS011;10371;49.042;8.002;2023-12-07T03:29:23;15.83;;;14.37;;
20423;SDS011;10371;49.042;8.002;2023-12-07T03:30:23;15.13;;;13.67;;
20423;SDS011;10371;49.042;8.002;2023-12-07T03:31:24;15.63;;;14.13;;
20423;SDS011;10371;49.042;8.002;2023-12-07T03:32:24;15.13;;;13.73;;
20423;SDS011;10371;49.042;8.002;2023-12-07T03:33:24;15.03;;;13.63;;
20423;SDS011;10371;49.042;8.002;2023-12-07T03:34:24;15.00;;;13.50;;
20423;SDS011;10371;49.042;8.002;2023-12-07T03:35:25;16.23;;;14.70;;
20423;SDS011;10371;49.042;8.002;2023-12-07T03:36:25;15.30;;;13.87;;
20423;SDS011;10371;49.042;8.002;2023-12-07T03:37:25;16.20;;;14.60;;
20423;SDS011;10371;49.042;8.002;2023-12-07T03:38:25;15.37;;;13.77;;
20423;SDS011;10371;49.042;8.002;2023-12-07T03:39:26;15.13;;;13.77;;
20423;SDS011;10371;49.042;8.002;2023-12-07T03:40:27;15.00;;;13.50;;
20423;SDS011;10371;49.042;8.002;2023-12-07T03:41:27;14.97;;;13.47;;
20423;SDS011;10371;49.042;8.002;2023-12-07T03:42:28;14.43;;;13.03;;
20423;SDS011;10371;49.042;8.002;2023-12-07T03:43:28;13.73;;;12.40;;
20423;SDS011;10371;49.042;8.002;2023-12-07T03:44:28;13.63;;;12.27;;
20423;SDS011;10371;49.042;8.002;2023-12-07T03:45:29;13.73;;;12.53;;
20423;SDS011;10371;49.042;8.002;2023-12-07T03:46:29;13.00;;;11.70;;
20423;SDS011;10371;49.042;8.002;2023-12-07T03:47:29;12.80;;;11.50;;
20423;SDS011;10371;49.042;8.002;2023-12-07T03:48:29;13.63;;;12.33;;
20423;SDS011;10371;49.042;8.002;2023-12-07T03:49:30;13.70;;;12.37;;
20423;SDS011;10371;49.042;8.002;2023-12-07T03:50:30;12.73;;;11.53;;
20423;SDS011;10371;49.042;8.002;2023-12-07T03:51:30;12.53;;;11.33;;
20423;SDS011;10371;49.042;8.002;2023-12-07T03:52:31;12.97;;;11.77;;
20423;SDS011;10371;49.042;8.002;2023-12-07T03:53:32;12.90;;;11.70;;
20423;SDS011;10371;49.042;8.002;2023-12-07T03:54:32;13.00;;;11.77;;
20423;SDS011;10371;49.042;8.002;2023-12-07T03:55:32;12.97;;;11.77;;
20423;SDS011;10371;49.042;8.002;2023-12-07T03:56:33;13.40;;;11.93;;
20423;SDS011;10371;49.042;8.002;2023-12-07T03:57:33;14.13;;;12.73;;
20423;SDS011;10371;49.042;8.002;2023-12-07T03:58:33;13.57;;;12.27;;
20423;SDS011;10371;49.042;8.002;2023-12-07T03:59:35;14.57;;;13.10;;
20423;SDS011;10371;49.042;8.002;2023-12-07T04:00:36;14.13;;;12.73;;
20423;SDS011;10371;49.042;8.002;2023-12-07T04:01:36;14.83;;;13.43;;
20423;SDS011;10371;49.042;8.002;2023-12-07T04:02:37;14.50;;;13.17;;
20423;SDS011;10371;49.042;8.002;2023-12-07T04:03:37;14.30;;;13.00;;
20423;SDS011;10371;49.042;8.002;2023-12-07T04:04:37;12.90;;;11.70;;
20423;SDS011;10371;49.042;8.002;2023-12-07T04:05:38;12.77;;;11.57;;
20423;SDS011;10371;49.042;8.002;2023-12-07T04:06:38;13.70;;;12.27;;
20423;SDS011;10371;49.042;8.002;2023-12-07T04:07:39;13.57;;;12.27;;
20423;SDS011;10371;49.042;8.002;2023-12-07T04:08:39;12.63;;;11.43;;
20423;SDS011;10371;49.042;8.002;2023-12-07T04:09:40;12.00;;;10.90;;
20423;SDS011;10371;49.042;8.002;2023-12-07T04:10:40;12.83;;;11.63;;
20423;SDS011;10371;49.042;8.002;2023-12-07T04:11:40;14.20;;;12.90;;
20423;SDS011;10371;49.042;8.002;2023-12-07T04:12:40;13.77;;;12.47;;
20423;SDS011;10371;49.042;8.002;2023-12-07T04:13:41;13.80;;;12.50;;
20423;SDS011;10371;49.042;8.002;2023-12-07T04:14:42;14.13;;;12.70;;
20423;SDS011;10371;49.042;8.002;2023-12-07T04:15:42;14.23;;;12.83;;
20423;SDS011;10371;49.042;8.002;2023-12-07T04:16:43;14.10;;;12.80;;
20423;SDS011;10371;49.042;8.002;2023-12-07T04:17:43;13.73;;;12.43;;
20423;SDS011;10371;49.042;8.002;2023-12-07T04:18:43;13.53;;;12.27;;
20423;SDS011;10371;49.042;8.002;2023-12-07T04:19:44;13.60;;;12.40;;
20423;SDS011;10371;49.042;8.002;2023-12-07T04:20:44;13.60;;;12.30;;
20423;SDS011;10371;49.042;8.002;2023-12-07T04:21:44;14.87;;;12.67;;
20423;SDS011;10371;49.042;8.002;2023-12-07T04:22:45;16.13;;;14.50;;
20423;SDS011;10371;49.042;8.002;2023-12-07T04:23:45;16.33;;;14.83;;
20423;SDS011;10371;49.042;8.002;2023-12-07T04:24:45;15.70;;;14.30;;
20423;SDS011;10371;49.042;8.002;2023-12-07T04:25:46;15.13;;;13.63;;
20423;SDS011;10371;49.042;8.002;2023-12-07T04:26:46;15.47;;;14.03;;
20423;SDS011;10371;49.042;8.002;2023-12-07T04:27:46;14.93;;;13.50;;
20423;SDS011;10371;49.042;8.002;2023-12-07T04:28:46;14.87;;;13.57;;
20423;SDS011;10371;49.042;8.002;2023-12-07T04:29:47;14.73;;;13.33;;
20423;SDS011;10371;49.042;8.002;2023-12-07T04:30:47;13.37;;;12.07;;
20423;SDS011;10371;49.042;8.002;2023-12-07T04:31:47;13.03;;;11.80;;
20423;SDS011;10371;49.042;8.002;2023-12-07T04:32:48;13.10;;;11.90;;
20423;SDS011;10371;49.042;8.002;2023-12-07T04:33:48;14.17;;;12.83;;
20423;SDS011;10371;49.042;8.002;2023-12-07T04:34:48;13.27;;;11.97;;
20423;SDS011;10371;49.042;8.002;2023-12-07T04:35:49;13.30;;;12.10;;
20423;SDS011;10371;49.042;8.002;2023-12-07T04:36:49;13.17;;;11.90;;
20423;SDS011;10371;49.042;8.002;2023-12-07T04:37:50;15.13;;;13.73;;
20423;SDS011;10371;49.042;8.002;2023-12-07T04:38:50;14.33;;;13.03;;
20423;SDS011;10371;49.042;8.002;2023-12-07T04:39:50;15.50;;;14.00;;
20423;SDS011;10371;49.042;8.002;2023-12-07T04:40:50;16.23;;;14.57;;
20423;SDS011;10371;49.042;8.002;2023-12-07T04:41:51;15.57;;;13.97;;
20423;SDS011;10371;49.042;8.002;2023-12-07T04:42:51;14.87;;;13.37;;
20423;SDS011;10371;49.042;8.002;2023-12-07T04:43:51;14.43;;;13.03;;
20423;SDS011;10371;49.042;8.002;2023-12-07T04:44:52;13.93;;;12.63;;
20423;SDS011;10371;49.042;8.002;2023-12-07T04:45:52;13.87;;;12.57;;
20423;SDS011;10371;49.042;8.002;2023-12-07T04:46:52;13.60;;;12.20;;
20423;SDS011;10371;49.042;8.002;2023-12-07T04:47:53;13.20;;;11.90;;
20423;SDS011;10371;49.042;8.002;2023-12-07T04:48:53;14.13;;;12.83;;
20423;SDS011;10371;49.042;8.002;2023-12-07T04:49:53;13.43;;;12.23;;
20423;SDS011;10371;49.042;8.002;2023-12-07T04:50:54;13.90;;;12.67;;
20423;SDS011;10371;49.042;8.002;2023-12-07T04:51:54;13.37;;;12.10;;
20423;SDS011;10371;49.042;8.002;2023-12-07T04:52:54;13.40;;;12.13;;
20423;SDS011;10371;49.042;8.002;2023-12-07T04:53:54;13.87;;;12.10;;
20423;SDS011;10371;49.042;8.002;2023-12-07T04:54:55;12.83;;;11.53;;
20423;SDS011;10371;49.042;8.002;2023-12-07T04:55:55;12.20;;;11.10;;
20423;SDS011;10371;49.042;8.002;2023-12-07T04:56:55;12.00;;;10.90;;
20423;SDS011;10371;49.042;8.002;2023-12-07T04:57:56;12.43;;;11.23;;
20423;SDS011;10371;49.042;8.002;2023-12-07T04:58:56;13.27;;;12.07;;
20423;SDS011;10371;49.042;8.002;2023-12-07T04:59:56;12.90;;;11.70;;
20423;SDS011;10371;49.042;8.002;2023-12-07T05:00:57;13.07;;;11.87;;
20423;SDS011;10371;49.042;8.002;2023-12-07T05:01:57;12.60;;;11.50;;
20423;SDS011;10371;49.042;8.002;2023-12-07T05:02:57;13.03;;;11.83;;
20423;SDS011;10371;49.042;8.002;2023-12-07T05:03:57;13.60;;;12.40;;
20423;SDS011;10371;49.042;8.002;2023-12-07T05:04:58;13.13;;;11.83;;
20423;SDS011;10371;49.042;8.002;2023-12-07T05:05:58;12.80;;;11.60;;
20423;SDS011;10371;49.042;8.002;2023-12-07T05:06:58;13.13;;;11.83;;
20423;SDS011;10371;49.042;8.002;2023-12-07T05:07:59;13.20;;;12.00;;
20423;SDS011;10371;49.042;8.002;2023-12-07T05:09:00;14.33;;;12.60;;
20423;SDS011;10371;49.042;8.002;2023-12-07T05:10:00;13.90;;;12.57;;
20423;SDS011;10371;49.042;8.002;2023-12-07T05:11:00;14.20;;;12.77;;
20423;SDS011;10371;49.042;8.002;2023-12-07T05:12:01;13.53;;;12.23;;
20423;SDS011;10371;49.042;8.002;2023-12-07T05:13:01;13.13;;;11.93;;
20423;SDS011;10371;49.042;8.002;2023-12-07T05:14:01;12.67;;;11.57;;
20423;SDS011;10371;49.042;8.002;2023-12-07T05:15:03;12.97;;;11.67;;
20423;SDS011;10371;49.042;8.002;2023-12-07T05:16:05;13.23;;;11.93;;
20423;SDS011;10371;49.042;8.002;2023-12-07T05:18:08;12.43;;;11.23;;
20423;SDS011;10371;49.042;8.002;2023-12-07T05:19:09;12.80;;;11.67;;
20423;SDS011;10371;49.042;8.002;2023-12-07T05:20:09;13.13;;;11.93;;
20423;SDS011;10371;49.042;8.002;2023-12-07T05:21:12;13.90;;;12.60;;
20423;SDS011;10371;49.042;8.002;2023-12-07T05:22:13;13.40;;;12.10;;
20423;SDS011;10371;49.042;8.002;2023-12-07T05:23:14;13.87;;;12.57;;
20423;SDS011;10371;49.042;8.002;2023-12-07T05:24:14;13.57;;;12.37;;
20423;SDS011;10371;49.042;8.002;2023-12-07T05:25:15;13.20;;;11.67;;
20423;SDS011;10371;49.042;8.002;2023-12-07T05:26:16;14.30;;;12.80;;
20423;SDS011;10371;49.042;8.002;2023-12-07T05:27:16;14.60;;;13.10;;
20423;SDS011;10371;49.042;8.002;2023-12-07T05:28:16;13.20;;;11.90;;
20423;SDS011;10371;49.042;8.002;2023-12-07T05:29:16;13.67;;;12.37;;
20423;SDS011;10371;49.042;8.002;2023-12-07T05:30:17;13.53;;;12.30;;
20423;SDS011;10371;49.042;8.002;2023-12-07T05:31:17;14.50;;;13.00;;
20423;SDS011;10371;49.042;8.002;2023-12-07T05:32:18;13.17;;;11.90;;
20423;SDS011;10371;49.042;8.002;2023-12-07T05:33:18;13.73;;;12.33;;
20423;SDS011;10371;49.042;8.002;2023-12-07T05:34:22;13.60;;;12.20;;
20423;SDS011;10371;49.042;8.002;2023-12-07T05:35:23;14.17;;;12.87;;
20423;SDS011;10371;49.042;8.002;2023-12-07T05:36:23;14.80;;;12.70;;
20423;SDS011;10371;49.042;8.002;2023-12-07T05:37:23;15.03;;;13.57;;
20423;SDS011;10371;49.042;8.002;2023-12-07T05:38:24;16.30;;;14.63;;
20423;SDS011;10371;49.042;8.002;2023-12-07T05:39:24;17.20;;;15.37;;
20423;SDS011;10371;49.042;8.002;2023-12-07T05:40:24;18.27;;;16.27;;
20423;SDS011;10371;49.042;8.002;2023-12-07T05:41:25;17.47;;;15.67;;
20423;SDS011;10371;49.042;8.002;2023-12-07T05:42:25;17.10;;;15.27;;
20423;SDS011;10371;49.042;8.002;2023-12-07T05:43:26;14.83;;;13.33;;
20423;SDS011;10371;49.042;8.002;2023-12-07T05:44:26;15.87;;;14.07;;
20423;SDS011;10371;49.042;8.002;2023-12-07T05:45:26;15.47;;;13.87;;
20423;SDS011;10371;49.042;8.002;2023-12-07T05:46:27;14.87;;;13.47;;
20423;SDS011;10371;49.042;8.002;2023-12-07T05:47:27;14.47;;;13.07;;
20423;SDS011;10371;49.042;8.002;2023-12-07T05:48:27;13.63;;;12.37;;
20423;SDS011;10371;49.042;8.002;2023-12-07T05:49:28;13.90;;;12.53;;
20423;SDS011;10371;49.042;8.002;2023-12-07T05:50:28;13.27;;;12.07;;
20423;SDS011;10371;49.042;8.002;2023-12-07T05:51:29;12.33;;;11.13;;
20423;SDS011;10371;49.042;8.002;2023-12-07T05:52:29;13.03;;;11.83;;
20423;SDS011;10371;49.042;8.002;2023-12-07T05:53:29;12.40;;;11.20;;
20423;SDS011;10371;49.042;8.002;2023-12-07T05:54:32;12.07;;;10.87;;
20423;SDS011;10371;49.042;8.002;2023-12-07T05:55:32;12.23;;;11.23;;
20423;SDS011;10371;49.042;8.002;2023-12-07T05:56:33;12.13;;;10.93;;
20423;SDS011;10371;49.042;8.002;2023-12-07T05:57:33;11.90;;;10.80;;
20423;SDS011;10371;49.042;8.002;2023-12-07T05:58:33;12.33;;;11.13;;